WetterOnline ( https://www.wetteronline.ch )

Wetter aktuell Darß/Zingst

Aktuelles Wetter: Barth (7m)

6-stündlich | Neueste Meldungen
Ortszeit Temperatur Wetter
Mo, 16.12. 7:00 4.0° C bedeckt
Mo, 16.12. 1:00 5.8° C leicht bewölkt
So, 15.12. 19:00 7.0° C fast wolkenlos
So, 15.12. 13:00 7.9° C wolkenlos
So, 15.12. 7:00 2.1° C bewölkt
So, 15.12. 1:00 5.1° C bedeckt
Sa, 14.12. 19:00 4.4° C wolkig
Sa, 14.12. 13:00 4.2° C bedeckt
Ortszeit Temperatur Wetter
Mo, 16.12. 9:00 3.7° C bedeckt
Mo, 16.12. 8:40 3.7° C bedeckt
Mo, 16.12. 8:30 3.5° C bedeckt
Mo, 16.12. 8:20 3.5° C bedeckt
Mo, 16.12. 8:10 3.5° C bedeckt
Mo, 16.12. 8:00 3.7° C bedeckt
Mo, 16.12. 7:50 3.7° C bedeckt
Mo, 16.12. 7:30 3.7° C bedeckt
Mo, 16.12. 7:00 4.0° C bedeckt
Ortszeit Relative Feuchte Sichtweite
Mo, 16.12. 7:00 84% 30 km
Mo, 16.12. 1:00 82% 35 km
So, 15.12. 19:00 65% 30 km
So, 15.12. 13:00 76% >70 km
So, 15.12. 7:00 85% 30 km
So, 15.12. 1:00 80% 35 km
Sa, 14.12. 19:00 84% 50 km
Sa, 14.12. 13:00 90% 21 km
Ortszeit Relative Feuchte Sichtweite
Mo, 16.12. 9:00 82% 35 km
Mo, 16.12. 8:40 83% -
Mo, 16.12. 8:30 84% 30 km
Mo, 16.12. 8:20 84% -
Mo, 16.12. 8:10 84% -
Mo, 16.12. 8:00 84% 30 km
Mo, 16.12. 7:50 84% -
Mo, 16.12. 7:30 85% 30 km
Mo, 16.12. 7:00 84% 30 km
Ortszeit Niederschlagsmenge Niederschlagsart
Mo, 16.12. 7:00 0.1 l/m2 in 12 Std. Regen
Mo, 16.12. 1:00 0.1 l/m2 in 6 Std. Regen
So, 15.12. 19:00 1 l/m2 in 12 Std. -
So, 15.12. 13:00 1 l/m2 in 6 Std. Regen
So, 15.12. 7:00 0.6 l/m2 in 12 Std. Regen
So, 15.12. 1:00 0.6 l/m2 in 6 Std. Regen
Sa, 14.12. 19:00 0.6 l/m2 in 12 Std. Regen
Sa, 14.12. 13:00 0.2 l/m2 in 6 Std. Schnee, Regen
Ortszeit Niederschlagsmenge Niederschlagsart
Mo, 16.12. 9:00 0.0 l/m2 in 1 Std. -
Mo, 16.12. 8:40 keine Meldung -
Mo, 16.12. 8:30 0.0 l/m2 in 1 Std. -
Mo, 16.12. 8:20 keine Meldung -
Mo, 16.12. 8:10 keine Meldung -
Mo, 16.12. 8:00 0.0 l/m2 in 1 Std. -
Mo, 16.12. 7:50 keine Meldung -
Mo, 16.12. 7:30 0.0 l/m2 in 1 Std. -
Mo, 16.12. 7:00 0.0 l/m2 in 1 Std. Regen
Ortszeit Stärke Spitze Richtung
km/h Bft. km/h Grad Sektor
Mo, 16.12. 7:00 15 3 31 200° S
Mo, 16.12. 1:00 20 4 69 230° SW
So, 15.12. 19:00 40 6 72 250° W
So, 15.12. 13:00 31 5 56 220° SW
So, 15.12. 7:00 19 3 46 190° S
So, 15.12. 1:00 25 4 43 230° SW
Sa, 14.12. 19:00 25 4 40 220° SW
Sa, 14.12. 13:00 18 3 25 200° S
Ortszeit Stärke Spitze Richtung
km/h Bft. km/h Grad Sektor
Mo, 16.12. 9:00 14 3 25 190° S
Mo, 16.12. 8:40 15 3 - 190° S
Mo, 16.12. 8:30 14 3 22 190° S
Mo, 16.12. 8:20 14 3 - 190° S
Mo, 16.12. 8:10 14 3 - 190° S
Mo, 16.12. 8:00 15 3 24 200° S
Mo, 16.12. 7:50 15 3 - 200° S
Mo, 16.12. 7:30 14 3 25 190° S
Mo, 16.12. 7:00 15 3 24 200° S
Ortszeit Untergrenze Bedeckung Gattung
total tief tief mittel hoch
Mo, 16.12. 7:00 5100 m 8/8 8/8 - - -
Mo, 16.12. 1:00 720 m 4/8 5/8 - - -
So, 15.12. 19:00 1320 m 1/8 1/8 - - -
So, 15.12. 13:00 990 m 0/8 0/8 - - -
So, 15.12. 7:00 3600 m 7/8 7/8 - - -
So, 15.12. 1:00 720 m 8/8 8/8 - - -
Sa, 14.12. 19:00 960 m 7/8 3/8 - - -
Sa, 14.12. 13:00 390 m 8/8 8/8 - - -
Ortszeit Bedeckungsgrad in Achtel und Wolkenuntergrenze
Mo, 16.12. 9:00 8(4200m) 8(6300m)
Mo, 16.12. 8:40 8(4200m)
Mo, 16.12. 8:30 8(4500m)
Mo, 16.12. 8:20 8(4500m)
Mo, 16.12. 8:10 8(4500m)
Mo, 16.12. 8:00 8(4800m)
Mo, 16.12. 7:50 8(4800m)
Mo, 16.12. 7:30 8(5100m)
Mo, 16.12. 7:00 8(5100m)
Ortszeit Luftdruck NN (hPa) Tendenz (hPa in 3 Std.)
Mo, 16.12. 7:00 1007 + 0,6
Mo, 16.12. 1:00 1005 + 3,0
So, 15.12. 19:00 998 + 3,7
So, 15.12. 13:00 991 - 0,9
So, 15.12. 7:00 995 - 0,6
So, 15.12. 1:00 993 + 3,3
Sa, 14.12. 19:00 988 + 1,7
Sa, 14.12. 13:00 984 + 0,6
Ortszeit Luftdruck NN (hPa) Tendenz (hPa in 3 Std.)
Mo, 16.12. 9:00 1007 + 0,7
Mo, 16.12. 8:40 1007 keine Meldung
Mo, 16.12. 8:30 1007 + 0,4
Mo, 16.12. 8:20 1007 keine Meldung
Mo, 16.12. 8:10 1007 keine Meldung
Mo, 16.12. 8:00 1007 + 0,6
Mo, 16.12. 7:50 1007 keine Meldung
Mo, 16.12. 7:30 1007 + 0,7
Mo, 16.12. 7:00 1007 + 0,6
Ortszeit Schneehöhe (cm)
Mo, 16.12. 7:00 0
Mo, 16.12. 1:00 0
So, 15.12. 19:00 0
So, 15.12. 13:00 0
So, 15.12. 7:00 0
So, 15.12. 1:00 0
Sa, 14.12. 19:00 0
Sa, 14.12. 13:00 0
Ortszeit Schneehöhe (cm)
Mo, 16.12. 9:00 0
Mo, 16.12. 8:40 0
Mo, 16.12. 8:30 0
Mo, 16.12. 8:20 0
Mo, 16.12. 8:10 0
Mo, 16.12. 8:00 0
Mo, 16.12. 7:50 0
Mo, 16.12. 7:30 0
Mo, 16.12. 7:00 0
Link zu dieser Seite / Seite empfehlen

Das Wetter in ...